Time;durP1;ratioP1;P1;durP2;ratioP2;P2;SDS_P1;SDS_P2;PMS_P1;PMS_P2;Temp;Humidity;BMP_temperature;BMP_pressure;BME280_temperature;BME280_humidity;BME280_pressure;Samples;Min_cycle;Max_cycle;Signal;HPM_P1;HPM_P2
2021/12/15 00:00:21;;;;;;;22.33;13.38;;;;;;;6.78;87.03;101370.53;5053224;28;20021;-88
2021/12/15 00:02:51;;;;;;;22.42;12.13;;;;;;;6.78;87.09;101373.13;5054667;28;20037;-89
2021/12/15 00:05:22;;;;;;;24.10;12.10;;;;;;;6.80;86.69;101376.56;5051917;28;20033;-88
2021/12/15 00:07:50;;;;;;;22.25;12.52;;;;;;;6.80;86.83;101373.97;5047709;28;20037;-88
2021/12/15 00:10:17;;;;;;;22.70;12.38;;;;;;;6.80;87.10;101376.56;5052105;28;20029;-87
2021/12/15 00:12:43;;;;;;;20.50;12.20;;;;;;;6.78;87.30;101373.13;5044822;28;20024;-89
2021/12/15 00:15:09;;;;;;;25.42;12.90;;;;;;;6.75;87.15;101378.47;5062688;28;20028;-88
2021/12/15 00:17:36;;;;;;;22.60;12.70;;;;;;;6.75;86.96;101378.47;5039248;28;20033;-87
2021/12/15 00:20:04;;;;;;;24.52;13.30;;;;;;;6.76;86.72;101381.03;5051814;28;20471;-88
2021/12/15 00:22:29;;;;;;;23.92;13.57;;;;;;;6.77;86.67;101374.06;5052189;28;20025;-89
2021/12/15 00:24:55;;;;;;;21.67;12.57;;;;;;;6.76;86.63;101374.97;5050255;28;20047;-88
2021/12/15 00:27:20;;;;;;;22.17;12.23;;;;;;;6.76;86.72;101375.81;5052859;28;20509;-88
2021/12/15 00:29:46;;;;;;;23.73;13.70;;;;;;;6.75;86.48;101374.13;5035717;28;20029;-88
2021/12/15 00:32:14;;;;;;;20.08;12.25;;;;;;;6.74;86.24;101374.16;5052059;28;20448;-88
2021/12/15 00:34:41;;;;;;;23.38;13.80;;;;;;;6.75;86.50;101373.28;5043960;28;20057;-87
2021/12/15 00:37:07;;;;;;;22.83;12.73;;;;;;;6.74;86.69;101374.16;5053483;28;20036;-87
2021/12/15 00:39:33;;;;;;;25.83;13.43;;;;;;;6.73;86.32;101375.06;5051669;28;20101;-89
2021/12/15 00:41:59;;;;;;;24.10;13.40;;;;;;;6.73;86.33;101381.13;5044506;28;20099;-89
2021/12/15 00:44:25;;;;;;;23.77;12.90;;;;;;;6.75;86.25;101388.91;5052851;28;20037;-88
2021/12/15 00:46:52;;;;;;;21.58;12.63;;;;;;;6.72;86.28;101381.19;5043650;28;20037;-87
2021/12/15 00:49:19;;;;;;;21.65;12.38;;;;;;;6.77;86.18;101387.09;5051117;28;20091;-88
2021/12/15 00:51:47;;;;;;;20.10;11.82;;;;;;;6.78;85.54;101387.03;5043181;28;20025;-87
2021/12/15 00:54:14;;;;;;;19.27;12.05;;;;;;;6.79;85.43;101386.16;5045880;28;20050;-89
2021/12/15 00:56:42;;;;;;;21.45;12.50;;;;;;;6.83;85.33;101388.66;5042596;28;20584;-88
2021/12/15 00:59:13;;;;;;;20.00;12.07;;;;;;;6.86;85.37;101392.00;5043349;28;20021;-89
2021/12/15 01:01:42;;;;;;;24.38;12.68;;;;;;;6.88;84.90;101394.56;5052235;28;20037;-84
2021/12/15 01:04:10;;;;;;;19.88;12.02;;;;;;;6.89;85.18;101397.09;5061440;28;20043;-88
2021/12/15 01:06:38;;;;;;;19.25;11.30;;;;;;;6.90;84.94;101400.56;5034851;28;20040;-88
2021/12/15 01:09:16;;;;;;;23.35;12.20;;;;;;;6.91;84.79;101397.06;5033288;28;20103;-88
2021/12/15 01:12:04;;;;;;;23.60;11.48;;;;;;;6.92;85.14;101404.81;5056510;28;20040;-87
2021/12/15 01:20:15;;;;;;;22.53;12.47;;;;;;;6.85;85.30;101405.94;5032694;28;20040;-86
2021/12/15 01:22:47;;;;;;;22.85;12.32;;;;;;;6.83;85.23;101404.28;5048051;28;20053;-87
2021/12/15 01:25:38;;;;;;;23.02;12.55;;;;;;;6.84;85.37;101408.59;5050537;28;20037;-88
2021/12/15 01:28:07;;;;;;;20.55;11.75;;;;;;;6.86;84.79;101407.66;5051094;28;20049;-87
2021/12/15 01:30:41;;;;;;;23.13;11.90;;;;;;;6.86;85.01;101396.34;5066768;28;20054;-88
2021/12/15 01:33:06;;;;;;;21.38;12.15;;;;;;;6.87;84.83;101398.91;5069630;28;20063;-88
2021/12/15 01:35:34;;;;;;;18.15;11.02;;;;;;;6.88;84.16;101407.59;5059497;28;20026;-88
2021/12/15 01:37:59;;;;;;;18.50;12.23;;;;;;;6.87;84.73;101406.75;5067017;28;20037;-88
2021/12/15 01:40:40;;;;;;;23.08;11.50;;;;;;;6.88;84.92;101412.81;5051870;28;20082;-88
2021/12/15 01:43:19;;;;;;;20.77;11.93;;;;;;;6.85;84.61;101416.34;5047718;28;20037;-89
2021/12/15 01:48:33;;;;;;;18.55;11.32;;;;;;;6.85;84.04;101418.97;5026462;28;20117;-87
2021/12/15 01:51:00;;;;;;;19.85;11.13;;;;;;;6.84;84.38;101417.25;5061734;28;20036;-88
2021/12/15 01:53:29;;;;;;;20.40;11.18;;;;;;;6.84;84.29;101416.41;5051730;28;20029;-89
2021/12/15 01:55:55;;;;;;;22.75;11.65;;;;;;;6.84;84.71;101414.66;5034427;28;20396;-87
2021/12/15 01:58:23;;;;;;;18.45;10.88;;;;;;;6.82;84.07;101403.41;5050702;28;20028;-90
2021/12/15 02:00:56;;;;;;;20.63;11.73;;;;;;;6.83;84.53;101412.97;5050574;28;20025;-87
2021/12/15 02:03:24;;;;;;;18.60;10.50;;;;;;;6.84;84.45;101400.78;5052656;28;20029;-88
2021/12/15 02:05:50;;;;;;;18.30;11.27;;;;;;;6.84;84.61;101409.44;5046955;28;20033;-88
2021/12/15 02:08:16;;;;;;;18.50;10.65;;;;;;;6.85;84.40;101405.06;5049543;28;20044;-88
2021/12/15 02:10:48;;;;;;;18.15;10.82;;;;;;;6.83;84.21;101404.28;5050479;28;20120;-89
2021/12/15 02:13:16;;;;;;;20.55;11.10;;;;;;;6.79;84.56;101412.22;5041824;28;20032;-88
2021/12/15 02:16:07;;;;;;;20.60;11.05;;;;;;;6.83;84.90;101409.50;5044026;28;20029;-87
2021/12/15 02:18:40;;;;;;;18.52;10.98;;;;;;;6.81;84.33;101406.94;5061360;28;20025;-87
2021/12/15 02:21:19;;;;;;;16.88;10.63;;;;;;;6.80;84.43;101402.63;5052427;28;20108;-88
2021/12/15 02:23:50;;;;;;;20.38;11.25;;;;;;;6.81;84.78;101409.53;5050330;28;20037;-87
2021/12/15 02:26:21;;;;;;;17.45;10.27;;;;;;;6.81;84.58;101408.69;5051621;28;20047;-88
2021/12/15 02:28:54;;;;;;;20.23;11.32;;;;;;;6.81;84.57;101412.16;5050265;28;20449;-88
2021/12/15 02:37:18;;;;;;;19.90;11.50;;;;;;;6.76;84.93;101414.91;5001838;28;20074;-89
2021/12/15 02:39:51;;;;;;;16.70;10.50;;;;;;;6.77;85.24;101419.22;5018312;28;20430;-88
2021/12/15 02:42:18;;;;;;;18.85;10.75;;;;;;;6.76;85.29;101408.84;5033450;28;20053;-87
2021/12/15 02:44:45;;;;;;;18.48;10.68;;;;;;;6.75;85.71;101412.38;5034316;28;20037;-88
2021/12/15 02:47:21;;;;;;;18.80;10.57;;;;;;;6.74;85.57;101408.88;5028177;28;20281;-89
2021/12/15 02:49:56;;;;;;;18.77;10.95;;;;;;;6.73;85.74;101407.19;5067979;28;20433;-88
2021/12/15 02:52:22;;;;;;;19.58;10.88;;;;;;;6.70;85.85;101411.66;5051015;28;20037;-89
2021/12/15 02:54:48;;;;;;;21.05;10.98;;;;;;;6.70;85.94;101409.03;5065982;28;20029;-87
2021/12/15 02:57:16;;;;;;;19.10;10.52;;;;;;;6.69;86.01;101404.75;5073445;28;20024;-88
2021/12/15 03:05:28;;;;;;;18.52;10.77;;;;;;;6.67;86.36;101404.78;5073975;28;20029;-88
2021/12/15 03:15:58;;;;;;;21.42;11.50;;;;;;;6.67;86.53;101398.72;5073703;28;20048;-89
2021/12/15 03:18:26;;;;;;;21.35;11.35;;;;;;;6.69;86.50;101396.91;5073776;28;20090;-88
2021/12/15 03:21:01;;;;;;;18.73;11.20;;;;;;;6.69;86.06;101402.13;5074183;28;20033;-87
2021/12/15 03:23:43;;;;;;;20.05;10.63;;;;;;;6.67;86.43;101403.94;5062093;28;20489;-88
2021/12/15 03:26:11;;;;;;;16.98;10.35;;;;;;;6.67;86.26;101409.13;5040921;28;20043;-88
2021/12/15 03:37:04;;;;;;;17.05;10.05;;;;;;;6.76;86.03;101414.06;5055775;28;20473;-88
2021/12/15 03:39:33;;;;;;;16.35;9.85;;;;;;;6.79;86.07;101417.44;5051718;28;20104;-88
2021/12/15 03:42:06;;;;;;;18.77;9.82;;;;;;;6.81;86.00;101413.91;5053658;28;20040;-89
2021/12/15 03:44:44;;;;;;;15.98;10.27;;;;;;;6.82;86.03;101420.81;5050191;28;20114;-88
2021/12/15 03:47:22;;;;;;;16.90;10.55;;;;;;;6.82;86.10;101420.81;5049187;28;20041;-88
2021/12/15 03:49:51;;;;;;;17.50;10.43;;;;;;;6.81;85.91;101411.31;5053328;28;20065;-89
2021/12/15 03:52:24;;;;;;;18.55;10.15;;;;;;;6.84;86.14;101419.03;5054100;28;20595;-89
2021/12/15 03:54:52;;;;;;;18.88;10.30;;;;;;;6.83;86.00;101418.19;5045686;28;20096;-88
2021/12/15 03:57:20;;;;;;;19.83;10.80;;;;;;;6.84;86.07;101406.00;5055329;28;20080;-88
2021/12/15 03:59:48;;;;;;;18.38;9.85;;;;;;;6.86;85.87;101412.88;5053012;28;20033;-88
2021/12/15 04:02:18;;;;;;;17.30;10.15;;;;;;;6.85;86.27;101411.13;5047160;28;20120;-88
2021/12/15 04:04:46;;;;;;;17.35;9.93;;;;;;;6.87;85.90;101419.78;5025056;28;20120;-88
2021/12/15 04:07:13;;;;;;;16.73;10.45;;;;;;;6.87;85.76;101417.16;5054177;28;20114;-89
2021/12/15 04:09:42;;;;;;;16.27;10.25;;;;;;;6.86;86.58;101425.03;5052568;28;20167;-87
2021/12/15 04:12:11;;;;;;;17.65;10.20;;;;;;;6.85;86.50;101425.94;5052244;28;20025;-86
2021/12/15 04:14:45;;;;;;;;;;;;;;;6.83;87.08;101428.59;5041161;28;20032;-88
2021/12/15 04:17:36;;;;;;;18.17;9.48;;;;;;;6.79;87.24;101432.22;5032413;28;19917;-88
2021/12/15 04:20:11;;;;;;;18.63;9.38;;;;;;;6.74;87.05;101424.53;5031739;28;20374;-87
2021/12/15 04:22:38;;;;;;;17.48;10.07;;;;;;;6.73;87.22;101425.44;5033011;28;20025;-88
2021/12/15 04:25:13;;;;;;;17.13;9.90;;;;;;;6.72;87.16;101422.91;5033335;28;20045;-87
2021/12/15 04:27:39;;;;;;;17.38;10.15;;;;;;;6.70;87.13;101427.28;5053994;28;20550;-86
2021/12/15 04:30:11;;;;;;;18.15;10.75;;;;;;;6.69;87.05;101425.59;5055147;28;20021;-88
2021/12/15 04:32:45;;;;;;;16.50;9.75;;;;;;;6.69;87.64;101428.19;5042355;28;20435;-87
2021/12/15 04:35:13;;;;;;;18.23;10.07;;;;;;;6.66;87.18;101428.28;5048148;28;20432;-87
2021/12/15 04:37:42;;;;;;;18.75;10.18;;;;;;;6.68;87.35;101421.28;5033885;28;20029;-88
2021/12/15 04:40:09;;;;;;;;;;;;;;;6.70;87.26;101424.69;5041973;28;20439;-90
2021/12/15 04:42:37;;;;;;;14.60;9.40;;;;;;;6.72;86.99;101426.34;5053219;28;19908;-88
2021/12/15 04:45:03;;;;;;;19.10;9.60;;;;;;;6.72;87.20;101434.16;5049165;28;20025;-88
2021/12/15 04:47:31;;;;;;;17.55;10.05;;;;;;;6.73;87.26;101440.22;5048958;28;20095;-88
2021/12/15 04:50:03;;;;;;;20.08;9.73;;;;;;;6.71;87.14;101440.28;5051451;28;20090;-88
2021/12/15 04:52:30;;;;;;;18.45;10.55;;;;;;;6.71;87.16;101442.91;5068801;28;20113;-88
2021/12/15 04:54:57;;;;;;;18.25;9.32;;;;;;;6.73;87.49;101442.84;5048977;28;20114;-88
2021/12/15 04:57:26;;;;;;;14.23;9.15;;;;;;;6.74;87.30;101442.78;5034524;28;20097;-87
2021/12/15 04:59:52;;;;;;;16.92;9.25;;;;;;;6.75;87.13;101441.03;5033226;28;20186;-87
2021/12/15 05:02:21;;;;;;;19.15;10.48;;;;;;;6.77;87.51;101444.44;5033667;28;20439;-89
2021/12/15 05:04:51;;;;;;;16.63;9.32;;;;;;;6.79;87.36;101453.06;5041821;28;20057;-88
2021/12/15 05:07:20;;;;;;;16.63;9.88;;;;;;;6.82;87.33;101457.31;5038420;28;20034;-88
2021/12/15 05:09:50;;;;;;;15.10;9.27;;;;;;;6.84;87.02;101461.59;5053708;28;20472;-88
2021/12/15 05:12:22;;;;;;;17.38;9.00;;;;;;;6.87;86.66;101463.25;5054149;28;20025;-89
2021/12/15 05:14:50;;;;;;;15.38;8.60;;;;;;;6.85;86.81;101467.66;5052180;28;20033;-89
2021/12/15 05:17:18;;;;;;;17.63;9.40;;;;;;;6.87;86.75;101463.25;5052180;28;20163;-89
2021/12/15 05:19:47;;;;;;;15.57;9.00;;;;;;;6.85;86.89;101467.66;5043843;28;20037;-90
2021/12/15 05:22:14;;;;;;;20.20;9.57;;;;;;;6.84;86.58;101463.34;5047276;28;20059;-90
2021/12/15 05:24:43;;;;;;;16.60;9.35;;;;;;;6.84;87.02;101469.41;5052714;28;20087;-88
2021/12/15 05:27:12;;;;;;;16.45;9.93;;;;;;;6.85;86.55;101471.09;5053359;28;20038;-89
2021/12/15 05:29:39;;;;;;;15.70;9.30;;;;;;;6.84;86.88;101461.59;5053201;28;20136;-89
2021/12/15 05:32:06;;;;;;;16.98;9.43;;;;;;;6.84;86.71;101471.16;5068291;28;20043;-90
2021/12/15 05:34:32;;;;;;;18.00;10.48;;;;;;;6.82;87.16;101473.81;5052333;28;20041;-88
2021/12/15 05:36:58;;;;;;;22.02;11.02;;;;;;;6.83;87.15;101475.53;5052774;28;20048;-88
2021/12/15 05:39:29;;;;;;;21.65;11.20;;;;;;;6.81;87.24;101471.25;5053592;28;20025;-87
2021/12/15 05:41:55;;;;;;;21.13;11.05;;;;;;;6.80;87.66;101470.41;5061042;28;20510;-89
2021/12/15 05:44:25;;;;;;;17.98;11.38;;;;;;;6.83;87.72;101479.91;5051829;28;20037;-87
2021/12/15 05:46:53;;;;;;;18.48;11.07;;;;;;;6.83;87.59;101470.31;5050471;28;20122;-87
2021/12/15 05:49:21;;;;;;;23.77;12.40;;;;;;;6.82;88.08;101476.41;5035071;28;20111;-87
2021/12/15 05:51:47;;;;;;;22.97;11.87;;;;;;;6.81;88.46;101482.53;5051420;28;20033;-89
2021/12/15 05:54:16;;;;;;;19.48;10.93;;;;;;;6.79;87.99;101484.34;5049053;28;20098;-88
2021/12/15 05:56:45;;;;;;;18.35;11.02;;;;;;;6.78;88.21;101482.63;5063397;28;20049;-88
2021/12/15 05:59:16;;;;;;;21.30;11.45;;;;;;;6.75;88.64;101482.75;5061437;28;20157;-89
2021/12/15 06:01:44;;;;;;;21.27;11.68;;;;;;;6.76;88.25;101481.84;5047054;28;20056;-88
2021/12/15 06:04:13;;;;;;;21.33;12.20;;;;;;;6.79;88.43;101481.75;5059951;28;20059;-88
2021/12/15 06:06:39;;;;;;;20.85;12.07;;;;;;;6.79;88.53;101490.41;5053848;28;20036;-88
2021/12/15 06:09:12;;;;;;;19.00;11.63;;;;;;;6.76;88.09;101484.44;5053379;28;20037;-87
2021/12/15 06:11:42;;;;;;;22.25;10.85;;;;;;;6.74;87.64;101476.66;5064685;28;20071;-89
2021/12/15 06:14:08;;;;;;;18.77;10.50;;;;;;;6.73;87.97;101484.53;5045549;28;20116;-87
2021/12/15 06:16:38;;;;;;;18.35;10.52;;;;;;;6.70;88.04;101480.28;5050214;28;20365;-88
2021/12/15 06:19:07;;;;;;;22.20;10.77;;;;;;;6.66;88.36;101480.41;5050290;28;20107;-88
2021/12/15 06:21:53;;;;;;;22.90;11.35;;;;;;;6.60;88.54;101484.09;5036061;28;20108;-88
2021/12/15 06:24:29;;;;;;;18.35;10.48;;;;;;;6.54;89.06;101490.31;5040081;28;20113;-88
2021/12/15 06:27:21;;;;;;;21.58;11.77;;;;;;;6.47;89.29;101482.75;5050440;28;20049;-88
2021/12/15 06:30:25;;;;;;;;;;;;;;;;;;;;;
2021/12/15 06:32:54;;;;;;;19.30;10.88;;;;;;;6.37;89.91;101499.53;5032749;28;20044;-88
2021/12/15 06:35:22;;;;;;;16.38;10.23;;;;;;;6.32;90.27;101497.09;5050600;28;20055;-86
2021/12/15 06:37:55;;;;;;;19.65;10.73;;;;;;;6.34;89.89;101491.81;5052805;28;20061;-88
2021/12/15 06:40:40;;;;;;;19.13;10.68;;;;;;;6.39;90.14;101496.00;5053252;28;20040;-88
2021/12/15 06:43:12;;;;;;;22.58;11.32;;;;;;;6.42;89.86;101495.91;5044958;28;20033;-89
2021/12/15 06:45:56;;;;;;;19.92;10.38;;;;;;;6.45;89.69;101495.84;5041610;28;20080;-87
2021/12/15 06:59:58;;;;;;;20.30;10.35;;;;;;;6.63;89.28;101497.00;5054138;28;20114;-87
2021/12/15 07:02:27;;;;;;;23.83;10.98;;;;;;;6.66;88.91;101507.34;5057770;28;20048;-87
2021/12/15 07:05:18;;;;;;;19.02;9.52;;;;;;;6.70;88.57;101495.91;5059415;28;20047;-89
2021/12/15 07:07:46;;;;;;;18.10;10.25;;;;;;;6.73;88.54;101505.41;5050462;28;20117;-85
2021/12/15 07:10:23;;;;;;;22.00;10.73;;;;;;;6.75;88.76;101501.00;5056896;28;20033;-88
2021/12/15 07:12:59;;;;;;;16.80;9.32;;;;;;;6.76;89.00;101503.53;5068505;28;20041;-86
2021/12/15 07:15:26;;;;;;;21.55;9.77;;;;;;;6.78;88.56;101496.50;5052251;28;20100;-87
2021/12/15 07:18:00;;;;;;;17.23;9.38;;;;;;;6.86;88.33;101498.03;5048112;28;20053;-88
2021/12/15 07:23:41;;;;;;;19.13;9.82;;;;;;;6.88;88.71;101506.66;5040268;28;20036;-90
2021/12/15 07:26:07;;;;;;;16.70;9.35;;;;;;;6.88;88.17;101514.50;5048814;28;20504;-89
2021/12/15 07:28:36;;;;;;;17.80;9.13;;;;;;;6.89;88.44;101505.75;5025717;28;20028;-89
2021/12/15 07:31:07;;;;;;;16.38;9.93;;;;;;;6.92;88.33;101518.69;5059064;28;20040;-86
2021/12/15 07:33:43;;;;;;;16.52;10.02;;;;;;;6.93;88.03;101517.78;5060693;28;20437;-88
2021/12/15 07:39:37;;;;;;;15.43;8.95;;;;;;;6.97;87.95;101528.09;5001586;28;20048;-88
2021/12/15 07:42:16;;;;;;;16.42;9.38;;;;;;;6.99;87.70;101534.09;5061567;28;20445;-87
2021/12/15 07:44:54;;;;;;;16.75;9.52;;;;;;;6.99;87.32;101533.25;5060225;28;20049;-89
2021/12/15 07:47:20;;;;;;;18.02;9.00;;;;;;;7.01;87.59;101534.91;5054653;28;20029;-89
2021/12/15 07:49:51;;;;;;;16.77;9.18;;;;;;;7.01;87.87;101528.84;5045013;28;20103;-85
2021/12/15 07:52:20;;;;;;;16.98;9.27;;;;;;;7.06;87.84;101531.31;5044727;28;20037;-87
2021/12/15 07:54:48;;;;;;;;;;;;;;;7.07;87.80;101535.59;5062229;28;20040;-86
2021/12/15 07:57:19;;;;;;;18.50;10.52;;;;;;;7.06;87.66;101539.13;5060577;28;19970;-88
2021/12/15 07:59:50;;;;;;;15.80;9.10;;;;;;;7.06;87.59;101539.13;5056166;28;20041;-87
2021/12/15 08:02:18;;;;;;;17.23;8.77;;;;;;;7.00;88.12;101538.41;5069264;28;20124;-88
2021/12/15 08:04:47;;;;;;;15.70;9.27;;;;;;;7.00;88.29;101541.00;5041127;28;20511;-87
2021/12/15 08:07:18;;;;;;;17.08;8.75;;;;;;;6.99;88.32;101549.75;5055938;28;20060;-90
2021/12/15 08:09:50;;;;;;;16.02;8.93;;;;;;;7.00;88.08;101548.84;5055124;28;20480;-87
2021/12/15 08:12:26;;;;;;;15.52;9.68;;;;;;;7.01;88.23;101544.50;5042412;28;20325;-87
2021/12/15 08:14:56;;;;;;;16.88;9.20;;;;;;;7.01;88.23;101550.56;5071617;28;20041;-88
2021/12/15 08:17:22;;;;;;;18.48;9.20;;;;;;;7.03;87.95;101542.69;5055355;28;20090;-89
2021/12/15 08:19:48;;;;;;;17.05;9.00;;;;;;;7.05;87.73;101542.66;5039244;28;20093;-88
2021/12/15 08:22:22;;;;;;;15.98;9.02;;;;;;;7.05;87.66;101542.66;5052355;28;20060;-88
2021/12/15 08:24:50;;;;;;;16.05;9.35;;;;;;;7.08;87.85;101558.16;5048039;28;20108;-88
2021/12/15 08:27:25;;;;;;;24.27;10.05;;;;;;;7.08;88.17;101559.03;5048852;28;20044;-88
2021/12/15 08:29:57;;;;;;;21.75;9.07;;;;;;;7.10;87.79;101557.22;5035372;28;20041;-89
2021/12/15 08:32:25;;;;;;;18.70;9.82;;;;;;;7.09;87.80;101558.16;5048261;28;20155;-89
2021/12/15 08:34:55;;;;;;;17.13;9.40;;;;;;;7.10;88.26;101552.00;5067627;28;20065;-88
2021/12/15 08:37:20;;;;;;;21.50;8.65;;;;;;;7.12;88.10;101557.16;5044456;28;20038;-87
2021/12/15 08:39:46;;;;;;;19.20;9.02;;;;;;;7.14;87.92;101563.19;5039438;28;20038;-86
2021/12/15 08:42:15;;;;;;;17.90;8.82;;;;;;;7.12;87.62;101559.78;5044204;28;20036;-88
2021/12/15 08:44:46;;;;;;;19.98;9.05;;;;;;;7.12;88.00;101549.34;5043464;28;20048;-89
2021/12/15 08:47:20;;;;;;;16.65;8.48;;;;;;;7.13;87.94;101553.69;5044517;28;20060;-88
2021/12/15 08:49:50;;;;;;;15.85;8.95;;;;;;;7.14;88.12;101560.59;5045185;28;20127;-88
2021/12/15 08:52:19;;;;;;;17.58;9.07;;;;;;;7.15;88.26;101567.50;5029731;28;20513;-88
2021/12/15 08:54:56;;;;;;;17.60;8.23;;;;;;;7.16;88.13;101570.09;5045792;28;20048;-89
2021/12/15 08:57:24;;;;;;;17.90;8.43;;;;;;;7.19;87.86;101567.38;5054481;28;20335;-89
2021/12/15 08:59:53;;;;;;;12.95;8.10;;;;;;;7.20;87.92;101573.44;5043938;28;20037;-87
2021/12/15 09:02:27;;;;;;;12.75;7.82;;;;;;;7.21;88.25;101569.94;5049499;28;20033;-89
2021/12/15 09:04:57;;;;;;;15.32;7.75;;;;;;;7.21;88.29;101568.16;5055797;28;20039;-89
2021/12/15 09:07:35;;;;;;;16.23;7.93;;;;;;;7.22;87.93;101572.47;5047551;28;20059;-86
2021/12/15 09:10:00;;;;;;;13.05;7.72;;;;;;;7.22;88.20;101582.06;5062438;28;20110;-87
2021/12/15 09:12:26;;;;;;;16.17;8.38;;;;;;;7.25;88.68;101574.16;5042993;28;20038;-88
2021/12/15 09:14:54;;;;;;;14.05;8.32;;;;;;;7.28;88.28;101579.28;5053503;28;20033;-87
2021/12/15 09:17:23;;;;;;;14.60;8.27;;;;;;;7.31;88.35;101576.56;5054454;28;20033;-89
2021/12/15 09:19:54;;;;;;;12.52;7.60;;;;;;;7.31;88.55;101578.31;5055399;28;20091;-88
2021/12/15 09:25:26;;;;;;;16.00;7.97;;;;;;;7.32;88.19;101578.25;5038785;28;20773;-87
2021/12/15 09:27:51;;;;;;;12.30;7.47;;;;;;;7.32;88.56;101585.25;5042497;28;20038;-87
2021/12/15 09:30:21;;;;;;;17.40;7.28;;;;;;;7.35;88.79;101586.00;5042929;28;20052;-88
2021/12/15 09:32:47;;;;;;;;;;;;;;;7.34;88.31;101584.31;5051448;28;20037;-88
2021/12/15 09:35:15;;;;;;;13.02;7.45;;;;;;;7.35;89.02;101583.38;5046814;28;20400;-88
2021/12/15 09:37:47;;;;;;;13.30;8.15;;;;;;;7.36;88.76;101585.09;5044102;28;20048;-89
2021/12/15 09:40:23;;;;;;;15.02;8.05;;;;;;;7.35;89.26;101590.38;5038164;28;20488;-86
2021/12/15 09:42:55;;;;;;;15.88;7.88;;;;;;;7.37;88.53;101580.72;5048383;28;20052;-87
2021/12/15 10:11:11;;;;;;;12.30;6.93;;;;;;;7.78;87.76;101575.84;5044741;28;20095;-88
2021/12/15 10:19:20;;;;;;;16.80;7.35;;;;;;;7.78;88.22;101579.31;5045688;28;20074;-90
2021/12/15 10:22:01;;;;;;;13.98;8.00;;;;;;;7.83;88.32;101580.03;5046576;28;20036;-89
2021/12/15 10:24:45;;;;;;;15.15;7.22;;;;;;;7.86;88.14;101574.72;5047659;28;20021;-88
2021/12/15 10:28:04;;;;;;;10.80;7.30;;;;;;;7.87;88.23;101572.94;5051178;28;20052;-88
2021/12/15 10:30:48;;;;;;;;;;;;;;;;;;;;;
2021/12/15 10:33:24;;;;;;;15.05;7.28;;;;;;;7.96;87.43;101570.84;5058719;28;20129;-89
2021/12/15 10:36:02;;;;;;;13.65;6.85;;;;;;;8.00;87.36;101568.97;5052847;28;20036;-85
2021/12/15 10:38:31;;;;;;;14.45;7.78;;;;;;;8.00;87.28;101569.81;5037826;28;20124;-88
2021/12/15 10:41:10;;;;;;;14.20;8.20;;;;;;;8.05;87.46;101581.91;5024180;28;20036;-87
2021/12/15 10:44:00;;;;;;;12.30;7.00;;;;;;;8.09;86.93;101575.66;5041427;28;20037;-89
2021/12/15 10:46:35;;;;;;;13.95;6.82;;;;;;;8.09;87.18;101562.59;5035492;28;20049;-88
2021/12/15 10:49:47;;;;;;;12.55;7.53;;;;;;;8.10;86.74;101578.19;5046522;28;20033;-89
2021/12/15 10:52:13;;;;;;;16.95;7.53;;;;;;;8.16;86.88;101584.97;5004031;28;20038;-89
2021/12/15 10:54:51;;;;;;;12.23;7.45;;;;;;;8.18;86.65;101577.91;5029083;28;20349;-89
2021/12/15 10:57:30;;;;;;;16.15;7.13;;;;;;;8.18;86.43;101570.09;5044569;28;20049;-88
2021/12/15 11:00:03;;;;;;;12.75;6.93;;;;;;;8.23;86.65;101571.63;5052308;28;20034;-88
2021/12/15 11:02:33;;;;;;;13.90;8.10;;;;;;;8.30;86.46;101579.22;5049137;28;20150;-89
2021/12/15 11:05:20;;;;;;;13.23;6.90;;;;;;;8.22;86.64;101574.28;5050170;28;20478;-89
2021/12/15 11:08:02;;;;;;;15.23;7.30;;;;;;;8.22;86.70;101572.53;5052204;28;20037;-90
2021/12/15 11:10:39;;;;;;;12.10;7.78;;;;;;;8.26;86.26;101575.88;5031750;28;20041;-89
2021/12/15 11:13:15;;;;;;;15.00;7.32;;;;;;;8.31;86.27;101580.97;5031886;28;20060;-90
2021/12/15 11:15:51;;;;;;;11.00;6.93;;;;;;;8.30;86.17;101579.22;5021925;28;20419;-89
2021/12/15 11:18:18;;;;;;;13.60;7.70;;;;;;;8.42;85.80;101584.06;5036924;28;20028;-89
2021/12/15 11:21:04;;;;;;;10.82;6.68;;;;;;;8.46;85.89;101589.13;5040998;28;20026;-90
2021/12/15 11:23:33;;;;;;;14.18;7.25;;;;;;;8.53;85.47;101581.00;5018974;28;20143;-88
2021/12/15 11:26:11;;;;;;;11.55;6.68;;;;;;;8.55;85.09;101581.81;5047038;28;20029;-88
2021/12/15 11:28:51;;;;;;;11.00;6.38;;;;;;;8.58;85.04;101581.72;5049592;28;20341;-87
2021/12/15 11:31:25;;;;;;;11.98;6.82;;;;;;;8.60;85.43;101579.88;5035863;28;20044;-87
2021/12/15 11:34:01;;;;;;;12.90;7.50;;;;;;;8.62;84.89;101572.84;5057581;28;20009;-88
2021/12/15 11:36:46;;;;;;;13.45;6.80;;;;;;;8.59;85.03;101576.41;5046156;28;20029;-90
2021/12/15 11:39:51;;;;;;;;;;;;;;;;;;;;;
2021/12/15 11:42:46;;;;;;;13.63;6.68;;;;;;;8.67;85.09;101573.50;5042169;28;20151;-88
2021/12/15 11:45:13;;;;;;;11.93;6.97;;;;;;;8.73;84.86;101561.06;5033223;28;20073;-89
2021/12/15 11:47:42;;;;;;;12.57;7.05;;;;;;;8.72;84.70;101566.34;5048130;28;20095;-88
2021/12/15 11:50:13;;;;;;;13.35;6.65;;;;;;;8.72;84.78;101568.97;5045415;28;20405;-89
2021/12/15 11:52:46;;;;;;;13.57;6.88;;;;;;;8.69;84.95;101574.31;5062740;28;20441;-89
2021/12/15 11:55:51;;;;;;;11.93;6.32;;;;;;;8.67;84.35;101569.13;5036015;28;20064;-88
2021/12/15 12:01:48;;;;;;;11.68;6.97;;;;;;;8.69;84.59;101561.25;5011538;28;20041;-87
2021/12/15 12:04:29;;;;;;;12.38;5.70;;;;;;;8.65;84.56;101562.28;5000804;28;20077;-89
2021/12/15 12:07:11;;;;;;;20.63;6.65;;;;;;;8.71;84.85;101559.41;4993567;28;20048;-88
2021/12/15 12:09:52;;;;;;;10.55;6.43;;;;;;;8.75;84.31;101550.56;4986579;28;20049;-89
2021/12/15 12:12:29;;;;;;;9.32;5.82;;;;;;;8.76;84.39;101556.63;5014495;28;20097;-88
2021/12/15 12:15:06;;;;;;;10.60;5.93;;;;;;;8.78;84.64;101550.41;4977247;28;20056;-89
2021/12/15 12:17:43;;;;;;;12.45;6.10;;;;;;;8.72;84.69;101543.66;5007240;28;20138;-89
2021/12/15 12:20:23;;;;;;;10.77;5.72;;;;;;;8.78;84.58;101554.78;5014221;28;20034;-88
2021/12/15 12:35:31;;;;;;;9.23;5.75;;;;;;;8.87;83.38;101544.84;4907264;29;20043;-90
2021/12/15 12:41:55;;;;;;;8.70;4.57;;;;;;;8.90;83.34;101543.88;4919557;29;20047;-91
2021/12/15 13:00:25;;;;;;;19.25;6.38;;;;;;;9.16;81.88;101529.72;4924016;29;20055;-90
2021/12/15 13:03:51;;;;;;;7.30;4.00;;;;;;;9.18;81.05;101526.13;4971234;28;20030;-90
2021/12/15 13:07:13;;;;;;;;;;;;;;;;;;;;;
2021/12/15 13:10:03;;;;;;;9.85;4.03;;;;;;;9.31;80.29;101515.16;4985369;28;20117;-83
2021/12/15 13:13:04;;;;;;;9.85;4.05;;;;;;;9.38;80.01;101517.44;4993656;28;20034;-91
2021/12/15 13:16:35;;;;;;;;;;;;;;;;;;;;;
2021/12/15 13:29:53;;;;;;;6.38;3.60;;;;;;;9.51;78.47;101509.06;4895564;29;20113;-91
2021/12/15 13:39:03;;;;;;;13.73;4.25;;;;;;;9.65;78.53;101515.41;4904521;29;20056;-88
2021/12/15 13:42:28;;;;;;;;;;;;;;;;;;;;;
2021/12/15 13:45:07;;;;;;;7.85;4.63;;;;;;;9.33;80.11;101522.00;4875326;29;20052;-91
2021/12/15 13:47:50;;;;;;;12.95;4.78;;;;;;;9.19;80.98;101526.97;4859863;29;20046;-91
2021/12/15 13:51:00;;;;;;;;;;;;;;;;;;;;;
2021/12/15 13:53:49;;;;;;;;;;;;;;;;;;;;;
2021/12/15 13:56:56;;;;;;;7.50;4.22;;;;;;;9.04;82.34;101527.59;4873148;29;20208;-87
2021/12/15 14:00:02;;;;;;;7.80;4.40;;;;;;;9.00;82.83;101528.63;4923588;29;20111;-88
2021/12/15 14:03:10;;;;;;;10.02;3.95;;;;;;;9.01;82.59;101527.72;4960670;28;20118;-89
2021/12/15 14:06:34;;;;;;;8.93;4.65;;;;;;;8.98;82.86;101535.72;4936812;28;20129;-90
2021/12/15 14:09:48;;;;;;;9.15;4.78;;;;;;;8.89;83.33;101532.53;4967727;28;20045;-87
2021/12/15 14:13:08;;;;;;;6.93;4.20;;;;;;;8.88;83.51;101530.84;5045800;28;20446;-89
2021/12/15 14:15:45;;;;;;;7.57;4.47;;;;;;;8.86;83.61;101535.28;4992759;28;20065;-89
2021/12/15 14:18:31;;;;;;;9.50;4.65;;;;;;;8.87;83.83;101529.13;5043631;28;20033;-87
2021/12/15 14:21:37;;;;;;;8.07;4.22;;;;;;;8.88;83.32;101537.81;5045733;28;20087;-90
2021/12/15 14:24:11;;;;;;;7.88;4.35;;;;;;;8.87;84.09;101538.75;4985321;28;20037;-90
2021/12/15 14:26:41;;;;;;;9.82;4.72;;;;;;;8.86;83.94;101547.50;5037283;28;20064;-89
2021/12/15 14:35:42;;;;;;;13.50;4.60;;;;;;;8.80;84.33;101538.13;4932509;29;20352;-90